Time;durP1;ratioP1;P1;durP2;ratioP2;P2;SDS_P1;SDS_P2;PMS_P1;PMS_P2;Temp;Humidity;BMP_temperature;BMP_pressure;BME280_temperature;BME280_humidity;BME280_pressure;Samples;Min_cycle;Max_cycle;Signal;HPM_P1;HPM_P2
2021/07/01 00:01:14;;;;;;;58.33;2.63;;;13.30;99.90;;;;;;5056751;28;20534;-78
2021/07/01 00:03:42;;;;;;;59.47;3.47;;;13.30;99.90;;;;;;5057252;28;20511;-79
2021/07/01 00:06:08;;;;;;;58.60;2.70;;;13.20;99.90;;;;;;5058086;28;20535;-78
2021/07/01 00:08:37;;;;;;;58.27;2.80;;;13.20;99.90;;;;;;5058572;28;21132;-78
2021/07/01 00:11:04;;;;;;;58.53;2.70;;;13.20;99.90;;;;;;5057416;28;20547;-78
2021/07/01 00:13:31;;;;;;;58.57;2.90;;;13.20;99.90;;;;;;5058288;28;20475;-78
2021/07/01 00:15:58;;;;;;;58.53;3.13;;;13.20;99.90;;;;;;5056980;28;20479;-78
2021/07/01 00:18:24;;;;;;;58.47;2.87;;;13.20;99.90;;;;;;5058248;28;20535;-78
2021/07/01 00:20:51;;;;;;;58.67;2.83;;;13.20;99.90;;;;;;5058031;28;20529;-78
2021/07/01 00:23:18;;;;;;;58.57;2.70;;;13.20;99.90;;;;;;5057843;28;20519;-77
2021/07/01 00:25:46;;;;;;;58.57;2.90;;;13.20;99.90;;;;;;5057426;28;20531;-78
2021/07/01 00:28:13;;;;;;;58.57;2.80;;;13.20;99.90;;;;;;5058504;28;20480;-78
2021/07/01 00:30:40;;;;;;;58.23;2.70;;;13.20;99.90;;;;;;5058077;28;20934;-78
2021/07/01 00:33:07;;;;;;;58.47;2.70;;;13.10;99.90;;;;;;5056569;28;20551;-78
2021/07/01 00:35:34;;;;;;;58.57;2.90;;;13.10;99.90;;;;;;5056447;28;20840;-78
2021/07/01 00:38:01;;;;;;;58.57;2.70;;;13.10;99.90;;;;;;5058185;28;20516;-78
2021/07/01 00:40:28;;;;;;;58.43;2.80;;;13.10;99.90;;;;;;5057219;28;20499;-79
2021/07/01 00:42:56;;;;;;;58.47;2.70;;;13.10;99.90;;;;;;5056835;28;20498;-79
2021/07/01 00:45:23;;;;;;;58.43;2.60;;;13.10;99.90;;;;;;5057677;28;20488;-79
2021/07/01 00:47:50;;;;;;;58.37;2.70;;;13.10;99.90;;;;;;5058366;28;20483;-79
2021/07/01 00:50:17;;;;;;;58.53;2.90;;;13.10;99.90;;;;;;5058071;28;20543;-79
2021/07/01 00:52:44;;;;;;;58.33;2.80;;;13.10;99.90;;;;;;5056558;28;20527;-79
2021/07/01 00:55:13;;;;;;;58.37;2.70;;;13.10;99.90;;;;;;5056921;28;20523;-78
2021/07/01 00:57:41;;;;;;;58.33;2.63;;;13.10;99.90;;;;;;5056370;28;20996;-79
2021/07/01 01:00:39;;;;;;;58.37;2.60;;;13.10;99.90;;;;;;5056905;28;20495;-79
2021/07/01 01:03:06;;;;;;;58.33;2.77;;;13.20;99.90;;;;;;5056561;28;20491;-79
2021/07/01 01:05:33;;;;;;;58.50;2.63;;;13.20;99.90;;;;;;5056857;28;20464;-79
2021/07/01 01:08:00;;;;;;;58.80;3.17;;;13.20;99.90;;;;;;5057029;28;20507;-79
2021/07/01 01:10:27;;;;;;;58.50;2.90;;;13.20;99.90;;;;;;5055769;28;20454;-79
2021/07/01 01:12:54;;;;;;;58.50;2.83;;;13.30;99.90;;;;;;5055933;28;21014;-79
2021/07/01 01:15:22;;;;;;;58.23;2.60;;;13.30;99.90;;;;;;5056852;28;20483;-79
2021/07/01 01:17:49;;;;;;;58.43;2.70;;;13.30;99.90;;;;;;5057591;28;20484;-79
2021/07/01 01:20:16;;;;;;;58.27;2.70;;;13.30;99.90;;;;;;5057167;28;20509;-79
2021/07/01 01:22:44;;;;;;;58.70;2.70;;;13.30;99.90;;;;;;5055561;28;20530;-79
2021/07/01 01:25:12;;;;;;;58.27;2.60;;;13.30;99.90;;;;;;5057032;28;20455;-79
2021/07/01 01:27:39;;;;;;;58.13;2.67;;;13.30;99.90;;;;;;5056657;28;20516;-79
2021/07/01 01:30:08;;;;;;;58.33;2.70;;;13.30;99.90;;;;;;5055884;28;20531;-78
2021/07/01 01:32:35;;;;;;;58.57;2.90;;;13.30;99.90;;;;;;5055338;28;20535;-78
2021/07/01 01:35:02;;;;;;;58.40;2.63;;;13.30;99.90;;;;;;5054745;28;20531;-79
2021/07/01 01:37:28;;;;;;;58.47;2.60;;;13.40;99.90;;;;;;5056776;28;20491;-79
2021/07/01 01:39:57;;;;;;;58.37;2.70;;;13.40;99.90;;;;;;5055779;28;20494;-79
2021/07/01 01:42:23;;;;;;;58.17;2.57;;;13.40;99.90;;;;;;5054832;28;20571;-78
2021/07/01 01:44:50;;;;;;;58.60;3.10;;;13.40;99.90;;;;;;5055065;28;20885;-79
2021/07/01 01:47:18;;;;;;;58.60;2.60;;;13.40;99.90;;;;;;5055187;28;20432;-78
2021/07/01 01:49:49;;;;;;;58.23;2.60;;;13.40;99.90;;;;;;5055011;28;20538;-78
2021/07/01 01:52:17;;;;;;;58.57;2.60;;;13.40;99.90;;;;;;5054878;28;21048;-78
2021/07/01 01:54:44;;;;;;;58.37;2.63;;;13.40;99.90;;;;;;5054145;28;20503;-78
2021/07/01 01:57:12;;;;;;;58.27;2.60;;;13.40;99.90;;;;;;5053287;28;20846;-78
2021/07/01 01:59:39;;;;;;;58.33;2.60;;;13.50;99.90;;;;;;5054473;28;20898;-78
2021/07/01 02:02:06;;;;;;;58.17;2.60;;;13.50;99.90;;;;;;5054380;28;20487;-78
2021/07/01 02:04:33;;;;;;;58.53;2.70;;;13.50;99.90;;;;;;5054241;28;20555;-79
2021/07/01 02:07:00;;;;;;;58.37;2.60;;;13.50;99.90;;;;;;5055483;28;20483;-78
2021/07/01 02:09:27;;;;;;;58.27;2.70;;;13.50;99.90;;;;;;5055044;28;20535;-78
2021/07/01 02:11:54;;;;;;;58.57;2.60;;;13.50;99.90;;;;;;5054000;28;20468;-78
2021/07/01 02:14:22;;;;;;;57.97;2.60;;;13.50;99.90;;;;;;5055106;28;20470;-78
2021/07/01 02:16:49;;;;;;;58.33;2.53;;;13.50;99.90;;;;;;5054774;28;20530;-78
2021/07/01 02:19:16;;;;;;;58.37;2.70;;;13.60;99.90;;;;;;5054455;28;20527;-78
2021/07/01 02:21:43;;;;;;;58.33;2.90;;;13.50;99.90;;;;;;5055071;28;20548;-78
2021/07/01 02:24:10;;;;;;;58.53;2.73;;;13.50;99.90;;;;;;5054946;28;20526;-78
2021/07/01 02:26:36;;;;;;;58.13;2.60;;;13.50;99.90;;;;;;5054792;28;20495;-78
2021/07/01 02:29:03;;;;;;;58.37;2.73;;;13.50;99.90;;;;;;5054875;28;20519;-78
2021/07/01 02:31:32;;;;;;;57.93;2.60;;;13.50;99.90;;;;;;5054153;28;20515;-78
2021/07/01 02:33:58;;;;;;;58.27;2.70;;;13.50;99.90;;;;;;5054668;28;20525;-78
2021/07/01 02:36:25;;;;;;;58.33;2.57;;;13.50;99.90;;;;;;5054161;28;20535;-78
2021/07/01 02:38:52;;;;;;;58.03;2.60;;;13.50;99.90;;;;;;5054683;28;21026;-79
2021/07/01 02:41:19;;;;;;;58.37;2.53;;;13.50;99.90;;;;;;5054475;28;20508;-77
2021/07/01 02:43:46;;;;;;;58.17;2.50;;;13.50;99.90;;;;;;5054052;28;20582;-78
2021/07/01 02:46:13;;;;;;;58.33;2.47;;;13.50;99.90;;;;;;5055387;28;21468;-78
2021/07/01 02:48:41;;;;;;;58.57;2.80;;;13.50;99.90;;;;;;5054690;28;20516;-78
2021/07/01 02:51:08;;;;;;;58.40;2.60;;;13.50;99.90;;;;;;5054307;28;20460;-78
2021/07/01 02:53:35;;;;;;;58.37;2.70;;;13.50;99.90;;;;;;5053866;28;20551;-78
2021/07/01 02:56:02;;;;;;;58.33;2.60;;;13.50;99.90;;;;;;5054314;28;20456;-78
2021/07/01 02:58:29;;;;;;;58.40;2.57;;;13.50;99.90;;;;;;5053838;28;20454;-78
2021/07/01 03:00:56;;;;;;;58.23;2.50;;;13.50;99.90;;;;;;5056225;28;20475;-78
2021/07/01 03:03:23;;;;;;;58.23;2.60;;;13.50;99.90;;;;;;5057494;28;20551;-78
2021/07/01 03:05:51;;;;;;;58.37;2.67;;;13.50;99.90;;;;;;5058088;28;20524;-78
2021/07/01 03:08:18;;;;;;;58.33;2.60;;;13.40;99.90;;;;;;5056932;28;20462;-78
2021/07/01 03:10:45;;;;;;;58.30;2.60;;;13.50;99.90;;;;;;5057854;28;20459;-78
2021/07/01 03:13:11;;;;;;;58.40;2.57;;;13.50;99.90;;;;;;5056786;28;20954;-78
2021/07/01 03:15:38;;;;;;;58.33;2.50;;;13.50;99.90;;;;;;5057077;28;20492;-78
2021/07/01 03:18:05;;;;;;;58.13;2.57;;;13.50;99.90;;;;;;5057383;28;20893;-78
2021/07/01 03:20:32;;;;;;;58.17;2.60;;;13.50;99.90;;;;;;5056859;28;20551;-78
2021/07/01 03:23:02;;;;;;;58.17;2.67;;;13.50;99.90;;;;;;5056898;28;20511;-78
2021/07/01 03:25:29;;;;;;;58.47;2.70;;;13.60;99.90;;;;;;5056985;28;20448;-78
2021/07/01 03:27:55;;;;;;;58.37;2.80;;;13.60;99.90;;;;;;5057517;28;21386;-78
2021/07/01 03:30:22;;;;;;;58.50;2.70;;;13.50;99.90;;;;;;5057223;28;20547;-77
2021/07/01 03:32:49;;;;;;;58.40;2.63;;;13.50;99.90;;;;;;5056974;28;20476;-78
2021/07/01 03:35:16;;;;;;;58.27;2.60;;;13.50;99.90;;;;;;5057376;28;20484;-79
2021/07/01 03:37:43;;;;;;;58.37;2.63;;;13.50;99.90;;;;;;5057295;28;20437;-78
2021/07/01 03:40:12;;;;;;;58.37;2.63;;;13.50;99.90;;;;;;5055882;28;21029;-78
2021/07/01 03:42:39;;;;;;;58.30;2.60;;;13.50;99.90;;;;;;5055528;28;20513;-78
2021/07/01 03:45:07;;;;;;;58.07;2.60;;;13.60;99.90;;;;;;5056718;28;20444;-78
2021/07/01 03:47:34;;;;;;;58.30;2.80;;;13.50;99.90;;;;;;5056550;28;20462;-79
2021/07/01 03:50:01;;;;;;;58.17;2.80;;;13.50;99.90;;;;;;5057251;28;20523;-78
2021/07/01 03:52:28;;;;;;;58.23;2.57;;;13.50;99.90;;;;;;5056669;28;20479;-78
2021/07/01 03:54:54;;;;;;;58.40;2.80;;;13.50;99.90;;;;;;5055836;28;20527;-78
2021/07/01 03:57:23;;;;;;;58.27;2.57;;;13.50;99.90;;;;;;5056288;28;20534;-77
2021/07/01 03:59:49;;;;;;;58.17;2.57;;;13.50;99.90;;;;;;5056513;28;20471;-77
2021/07/01 04:02:16;;;;;;;58.17;2.60;;;13.50;99.90;;;;;;5057277;28;20492;-78
2021/07/01 04:04:43;;;;;;;58.43;2.60;;;13.40;99.90;;;;;;5056357;28;20582;-78
2021/07/01 04:07:10;;;;;;;58.57;2.70;;;13.40;99.90;;;;;;5056095;28;20459;-78
2021/07/01 04:09:37;;;;;;;58.27;2.60;;;13.40;99.90;;;;;;5056917;28;20539;-78
2021/07/01 04:12:04;;;;;;;58.33;2.70;;;13.40;99.90;;;;;;5054741;28;20897;-78
2021/07/01 04:14:33;;;;;;;58.30;2.70;;;13.40;99.90;;;;;;5055489;28;20464;-78
2021/07/01 04:17:00;;;;;;;58.27;2.60;;;13.50;99.90;;;;;;5055414;28;20948;-78
2021/07/01 04:19:26;;;;;;;58.27;2.53;;;13.50;99.90;;;;;;5055147;28;21059;-78
2021/07/01 04:21:53;;;;;;;58.30;2.70;;;13.50;99.90;;;;;;5055267;28;20488;-78
2021/07/01 04:24:20;;;;;;;58.47;2.70;;;13.60;99.90;;;;;;5054380;28;20574;-77
2021/07/01 04:26:47;;;;;;;58.13;2.70;;;13.60;99.90;;;;;;5056290;28;20886;-78
2021/07/01 04:29:14;;;;;;;58.40;2.60;;;13.60;99.90;;;;;;5055173;28;21197;-78
2021/07/01 04:31:42;;;;;;;58.23;2.70;;;13.60;99.30;;;;;;5054200;28;20495;-78
2021/07/01 04:34:09;;;;;;;58.33;2.60;;;13.60;99.40;;;;;;5055276;28;20496;-78
2021/07/01 04:36:36;;;;;;;58.27;2.70;;;13.60;98.90;;;;;;5055208;28;20475;-78
2021/07/01 04:39:03;;;;;;;58.40;2.70;;;13.60;99.40;;;;;;5055696;28;20460;-78
2021/07/01 04:41:30;;;;;;;58.37;2.60;;;13.60;99.90;;;;;;5053640;28;20452;-77
2021/07/01 04:43:57;;;;;;;58.07;2.70;;;13.60;99.80;;;;;;5055447;28;20520;-78
2021/07/01 04:46:24;;;;;;;58.20;2.70;;;13.60;99.90;;;;;;5055998;28;20535;-78
2021/07/01 04:48:53;;;;;;;58.17;2.50;;;13.60;99.90;;;;;;5056599;28;20976;-79
2021/07/01 04:51:20;;;;;;;58.17;2.70;;;13.60;99.90;;;;;;5055438;28;20456;-78
2021/07/01 04:53:47;;;;;;;58.40;2.67;;;13.60;99.90;;;;;;5056143;28;20559;-78
2021/07/01 04:56:14;;;;;;;58.40;2.80;;;13.50;99.90;;;;;;5056131;28;20472;-78
2021/07/01 04:58:41;;;;;;;58.37;2.70;;;13.50;99.90;;;;;;5056751;28;20877;-78
2021/07/01 05:01:07;;;;;;;58.43;2.83;;;13.60;99.90;;;;;;5056382;28;20479;-78
2021/07/01 05:03:35;;;;;;;58.37;2.77;;;13.60;99.90;;;;;;5055490;28;20523;-78
2021/07/01 05:06:03;;;;;;;58.17;2.53;;;13.70;99.90;;;;;;5054220;28;20458;-78
2021/07/01 05:08:30;;;;;;;57.97;2.57;;;13.70;99.90;;;;;;5054312;28;20544;-78
2021/07/01 05:10:57;;;;;;;58.20;2.60;;;13.80;99.90;;;;;;5053867;28;21048;-77
2021/07/01 05:13:24;;;;;;;58.27;2.67;;;13.80;99.90;;;;;;5040443;28;20844;-78
2021/07/01 05:15:51;;;;;;;58.17;2.60;;;13.80;99.90;;;;;;5033120;28;20746;-78
2021/07/01 05:18:18;;;;;;;57.97;2.50;;;13.90;99.90;;;;;;5034000;28;21079;-78
2021/07/01 05:20:45;;;;;;;58.03;2.50;;;13.80;99.90;;;;;;5033835;28;20540;-79
2021/07/01 05:23:13;;;;;;;58.40;2.70;;;13.90;97.80;;;;;;5032762;28;20867;-79
2021/07/01 05:25:40;;;;;;;58.13;2.60;;;13.90;96.50;;;;;;5034200;28;20527;-79
2021/07/01 05:28:11;;;;;;;58.07;2.40;;;13.90;96.00;;;;;;5034293;28;20457;-79
2021/07/01 05:30:38;;;;;;;57.97;2.50;;;13.90;95.70;;;;;;5034068;28;20448;-78
2021/07/01 05:33:05;;;;;;;58.30;2.47;;;13.80;99.90;;;;;;5034187;28;20555;-79
2021/07/01 05:35:32;;;;;;;58.40;2.70;;;13.90;95.20;;;;;;5034763;28;20445;-79
2021/07/01 05:37:59;;;;;;;58.30;2.40;;;14.00;93.80;;;;;;5033964;28;20475;-79
2021/07/01 05:40:28;;;;;;;58.37;3.10;;;14.00;91.40;;;;;;5034262;28;20547;-79
2021/07/01 05:42:55;;;;;;;58.33;2.60;;;13.90;91.00;;;;;;5033548;28;20671;-79
2021/07/01 05:45:21;;;;;;;57.93;2.57;;;13.90;91.60;;;;;;5036196;28;20575;-79
2021/07/01 05:47:48;;;;;;;58.20;2.90;;;13.90;91.80;;;;;;5053708;28;20458;-79
2021/07/01 05:50:16;;;;;;;58.27;2.60;;;14.00;92.80;;;;;;5054304;28;20444;-79
2021/07/01 05:52:44;;;;;;;58.37;2.60;;;14.00;92.10;;;;;;5054138;28;20538;-79
2021/07/01 05:55:12;;;;;;;57.97;2.57;;;14.00;91.50;;;;;;5054205;28;20879;-79
2021/07/01 05:57:41;;;;;;;58.33;2.50;;;14.00;90.70;;;;;;5053650;28;20476;-78
2021/07/01 06:00:10;;;;;;;57.87;2.40;;;14.10;90.30;;;;;;5054200;28;20527;-79
2021/07/01 06:02:37;;;;;;;58.07;2.60;;;14.10;90.50;;;;;;5052854;28;20937;-73
2021/07/01 06:05:05;;;;;;;58.10;2.40;;;14.10;90.10;;;;;;5051181;28;20515;-71
2021/07/01 06:07:32;;;;;;;58.37;2.70;;;14.10;90.60;;;;;;5051407;28;20454;-72
2021/07/01 06:10:04;;;;;;;58.17;2.50;;;14.20;90.80;;;;;;5051325;28;20448;-72
2021/07/01 06:12:33;;;;;;;58.30;2.70;;;14.20;91.10;;;;;;5051297;28;20485;-72
2021/07/01 06:15:03;;;;;;;58.17;2.57;;;14.30;92.10;;;;;;5051565;28;20444;-72
2021/07/01 06:17:33;;;;;;;58.37;2.60;;;14.30;91.10;;;;;;5051742;28;20440;-72
2021/07/01 06:20:01;;;;;;;58.07;2.50;;;14.20;91.50;;;;;;5051307;28;20452;-71
2021/07/01 06:22:29;;;;;;;58.17;2.60;;;14.20;88.30;;;;;;5050832;28;20443;-71
2021/07/01 06:24:57;;;;;;;58.10;2.60;;;14.20;87.00;;;;;;5051453;28;20840;-72
2021/07/01 06:27:32;;;;;;;58.13;2.60;;;14.10;89.30;;;;;;5051518;28;20511;-71
2021/07/01 06:29:59;;;;;;;58.40;2.70;;;14.10;91.10;;;;;;5051494;28;20449;-72
2021/07/01 06:32:27;;;;;;;57.87;2.50;;;14.10;91.40;;;;;;5050890;28;20936;-71
2021/07/01 06:34:54;;;;;;;58.50;2.50;;;14.00;91.40;;;;;;5053337;28;20965;-71
2021/07/01 06:37:22;;;;;;;57.97;2.67;;;14.00;91.10;;;;;;5055018;28;20530;-72
2021/07/01 06:39:52;;;;;;;58.07;2.47;;;14.00;92.00;;;;;;5053934;28;20884;-71
2021/07/01 06:42:21;;;;;;;58.50;2.50;;;14.00;92.00;;;;;;5038994;28;20587;-72
2021/07/01 06:44:49;;;;;;;57.97;2.57;;;14.00;91.50;;;;;;5034723;28;20484;-72
2021/07/01 06:47:18;;;;;;;58.17;2.60;;;14.00;90.10;;;;;;5034947;28;20539;-72
2021/07/01 06:49:51;;;;;;;58.20;2.50;;;14.00;86.70;;;;;;5034754;28;20448;-71
2021/07/01 06:52:18;;;;;;;57.93;2.60;;;14.00;85.10;;;;;;5034757;28;20460;-71
2021/07/01 06:54:46;;;;;;;58.07;2.83;;;14.10;86.20;;;;;;5034898;28;20464;-71
2021/07/01 06:57:14;;;;;;;58.17;2.40;;;14.10;86.80;;;;;;5034738;28;20441;-71
2021/07/01 06:59:41;;;;;;;58.07;2.40;;;14.20;89.80;;;;;;5034713;28;20873;-71
2021/07/01 07:02:10;;;;;;;58.27;2.60;;;14.30;86.10;;;;;;5034158;28;20511;-71
2021/07/01 07:04:38;;;;;;;58.17;2.57;;;14.40;86.10;;;;;;5034634;28;20992;-71
2021/07/01 07:07:08;;;;;;;58.27;2.60;;;14.60;86.60;;;;;;5034491;28;20949;-71
2021/07/01 07:09:35;;;;;;;58.37;2.70;;;14.70;86.70;;;;;;5037410;28;20453;-71
2021/07/01 07:12:02;;;;;;;58.07;2.70;;;14.80;83.50;;;;;;5053812;28;20533;-71
2021/07/01 07:14:29;;;;;;;57.73;2.67;;;14.80;74.50;;;;;;5054292;28;20514;-71
2021/07/01 07:16:58;;;;;;;58.17;2.57;;;14.70;74.30;;;;;;5054191;28;20881;-71
2021/07/01 07:19:28;;;;;;;58.30;2.70;;;14.70;70.30;;;;;;5054463;28;20449;-71
2021/07/01 07:21:56;;;;;;;58.27;2.60;;;14.70;67.40;;;;;;5054093;28;20539;-71
2021/07/01 07:24:30;;;;;;;58.23;2.80;;;14.60;68.00;;;;;;5054332;28;20846;-71
2021/07/01 07:26:57;;;;;;;58.07;2.60;;;14.60;69.40;;;;;;5054115;28;20453;-71
2021/07/01 07:29:31;;;;;;;58.17;2.60;;;14.60;70.80;;;;;;5053964;28;20543;-71
2021/07/01 07:32:00;;;;;;;58.23;2.60;;;14.60;71.80;;;;;;5053802;28;20446;-71
2021/07/01 07:34:28;;;;;;;58.03;2.60;;;14.70;67.60;;;;;;5054044;28;20551;-71
2021/07/01 07:36:55;;;;;;;58.30;2.70;;;14.70;63.70;;;;;;5054037;28;21021;-71
2021/07/01 07:39:25;;;;;;;58.00;2.80;;;14.80;64.50;;;;;;5053950;28;20445;-71
2021/07/01 07:41:52;;;;;;;58.37;2.70;;;14.80;61.70;;;;;;5052051;28;20488;-72
2021/07/01 07:44:20;;;;;;;58.47;2.50;;;14.80;57.90;;;;;;5053501;28;20490;-71
2021/07/01 07:46:48;;;;;;;58.17;2.60;;;14.90;58.80;;;;;;5053120;28;20781;-71
2021/07/01 07:49:15;;;;;;;57.87;2.50;;;15.00;47.00;;;;;;5053712;28;20456;-70
2021/07/01 07:51:43;;;;;;;58.17;2.60;;;15.10;46.00;;;;;;5053508;28;20449;-71
2021/07/01 07:54:11;;;;;;;58.13;2.80;;;15.20;48.40;;;;;;5053538;28;20501;-70
2021/07/01 07:56:40;;;;;;;58.17;2.60;;;15.30;51.70;;;;;;5053482;28;20540;-69
2021/07/01 07:59:10;;;;;;;58.03;2.80;;;15.40;44.60;;;;;;5053737;28;20454;-69
2021/07/01 08:01:38;;;;;;;58.10;2.70;;;15.60;42.00;;;;;;5053158;28;20933;-70
2021/07/01 08:04:06;;;;;;;57.93;2.43;;;15.70;47.00;;;;;;5053317;28;20540;-69
2021/07/01 08:06:34;;;;;;;58.13;2.37;;;15.90;27.60;;;;;;5053426;28;20998;-70
2021/07/01 08:09:04;;;;;;;57.63;2.40;;;16.00;26.60;;;;;;5053197;28;20511;-70
2021/07/01 08:11:33;;;;;;;57.97;2.50;;;16.00;12.50;;;;;;5051658;28;20487;-70
2021/07/01 08:14:02;;;;;;;58.07;2.50;;;16.00;1.00;;;;;;5053246;28;20549;-70
2021/07/01 08:16:29;;;;;;;58.37;2.87;;;16.10;1.00;;;;;;5053318;28;20545;-70
2021/07/01 08:18:56;;;;;;;58.03;2.40;;;16.00;1.00;;;;;;5053247;28;20897;-70
2021/07/01 08:21:23;;;;;;;57.87;2.37;;;16.10;1.00;;;;;;5052759;28;20993;-70
2021/07/01 08:23:50;;;;;;;58.07;2.50;;;16.10;1.00;;;;;;5052924;28;20857;-70
2021/07/01 08:26:17;;;;;;;58.03;2.43;;;16.20;1.00;;;;;;5053148;28;20568;-70
2021/07/01 08:28:44;;;;;;;58.13;2.67;;;16.20;1.00;;;;;;5053129;28;20481;-70
2021/07/01 08:31:14;;;;;;;58.20;2.43;;;16.30;1.00;;;;;;5052914;28;20450;-70
2021/07/01 08:33:45;;;;;;;58.30;2.60;;;16.40;1.00;;;;;;5052596;28;20469;-71
2021/07/01 08:36:14;;;;;;;58.07;2.40;;;16.40;1.00;;;;;;5053106;28;20439;-70
2021/07/01 08:38:42;;;;;;;58.07;2.67;;;16.50;1.00;;;;;;5052959;28;20576;-70
2021/07/01 08:41:15;;;;;;;58.37;2.60;;;16.70;1.00;;;;;;5052720;28;20447;-70
2021/07/01 08:43:50;;;;;;;57.97;2.60;;;16.70;1.00;;;;;;5051594;28;20550;-70
2021/07/01 08:46:23;;;;;;;58.27;2.53;;;16.70;1.00;;;;;;5052318;28;21016;-70
2021/07/01 08:49:02;;;;;;;58.27;2.50;;;16.80;1.00;;;;;;5052641;28;20462;-71
2021/07/01 08:51:32;;;;;;;57.83;2.60;;;16.80;1.00;;;;;;5052552;28;20500;-70
2021/07/01 08:54:24;;;;;;;58.40;2.80;;;16.90;1.00;;;;;;5052477;28;20891;-71
2021/07/01 08:56:52;;;;;;;58.30;3.13;;;16.90;1.00;;;;;;5038121;28;20550;-71
2021/07/01 08:59:20;;;;;;;57.97;2.40;;;17.10;1.00;;;;;;5052881;28;20538;-71
2021/07/01 09:01:57;;;;;;;58.23;3.10;;;17.10;1.00;;;;;;5052135;28;20573;-71
2021/07/01 09:04:25;;;;;;;58.67;2.67;;;17.10;1.00;;;;;;5052344;28;20521;-71
2021/07/01 09:07:01;;;;;;;58.07;2.40;;;16.90;1.00;;;;;;5052331;28;20933;-71
2021/07/01 09:09:33;;;;;;;57.93;2.50;;;16.80;1.00;;;;;;5052240;28;20459;-70
2021/07/01 09:12:01;;;;;;;58.17;2.40;;;16.70;1.00;;;;;;5052160;28;20831;-70
2021/07/01 09:14:31;;;;;;;58.07;2.60;;;16.70;1.00;;;;;;5050608;28;20562;-71
2021/07/01 09:17:02;;;;;;;58.30;2.70;;;16.50;1.00;;;;;;5051960;28;20458;-70
2021/07/01 09:19:29;;;;;;;57.87;2.40;;;16.40;1.00;;;;;;5052095;28;20458;-71
2021/07/01 09:21:57;;;;;;;57.83;2.30;;;16.20;1.00;;;;;;5051547;28;21002;-71
2021/07/01 09:24:27;;;;;;;58.60;3.70;;;16.10;1.00;;;;;;5051946;28;20483;-71
2021/07/01 09:26:58;;;;;;;57.97;2.93;;;16.00;1.00;;;;;;5052336;28;20938;-71
2021/07/01 09:29:28;;;;;;;58.00;2.90;;;15.90;1.00;;;;;;5052061;28;20466;-71
2021/07/01 09:31:58;;;;;;;57.57;2.63;;;15.80;1.00;;;;;;5051570;28;20947;-70
2021/07/01 09:34:26;;;;;;;57.67;2.80;;;15.70;1.00;;;;;;5051692;28;20623;-70
2021/07/01 09:36:57;;;;;;;57.97;2.60;;;15.70;1.00;;;;;;5052133;28;20534;-71
2021/07/01 09:39:26;;;;;;;58.00;3.00;;;15.70;1.00;;;;;;5051907;28;20449;-70
2021/07/01 09:41:57;;;;;;;58.07;2.50;;;15.80;1.00;;;;;;5051635;28;20517;-70
2021/07/01 09:44:26;;;;;;;58.17;3.10;;;15.90;1.00;;;;;;5041419;28;20518;-71
2021/07/01 09:46:56;;;;;;;58.40;3.10;;;15.90;1.00;;;;;;5031879;28;20486;-70
2021/07/01 09:49:32;;;;;;;58.10;2.53;;;16.00;1.00;;;;;;5031958;28;20466;-71
2021/07/01 09:52:02;;;;;;;58.30;2.43;;;16.10;1.00;;;;;;5031611;28;20454;-71
2021/07/01 09:54:31;;;;;;;58.13;2.70;;;16.20;1.00;;;;;;5032179;28;20530;-70
2021/07/01 09:57:01;;;;;;;57.93;2.40;;;16.30;1.00;;;;;;5031790;28;20530;-70
2021/07/01 09:59:31;;;;;;;57.97;2.50;;;16.50;1.00;;;;;;5031889;28;20475;-70
2021/07/01 10:02:14;;;;;;;58.07;2.50;;;16.70;1.00;;;;;;5031446;28;20452;-71
2021/07/01 10:04:45;;;;;;;58.23;2.70;;;16.90;1.00;;;;;;5031841;28;20495;-71
2021/07/01 10:07:12;;;;;;;57.93;2.47;;;17.00;1.00;;;;;;5031922;28;20872;-72
2021/07/01 10:09:39;;;;;;;58.27;2.57;;;17.10;1.00;;;;;;5033403;28;20448;-71
2021/07/01 10:12:15;;;;;;;57.83;2.50;;;17.10;1.00;;;;;;5035296;28;20546;-70
2021/07/01 10:14:42;;;;;;;57.73;2.40;;;17.30;1.00;;;;;;5038615;28;20911;-71
2021/07/01 10:17:11;;;;;;;58.17;2.60;;;17.40;1.00;;;;;;5055360;28;20530;-70
2021/07/01 10:19:38;;;;;;;58.20;2.30;;;17.40;1.00;;;;;;5055524;28;20543;-71
2021/07/01 10:22:09;;;;;;;57.93;2.30;;;17.40;1.00;;;;;;5054909;28;20447;-71
2021/07/01 10:24:48;;;;;;;58.03;2.33;;;17.40;1.00;;;;;;5055512;28;20474;-71
2021/07/01 10:27:30;;;;;;;58.13;2.50;;;17.40;1.00;;;;;;5055472;28;20466;-70
2021/07/01 10:29:59;;;;;;;58.57;3.43;;;17.40;1.00;;;;;;5055308;28;20939;-70
2021/07/01 10:32:41;;;;;;;58.00;2.60;;;17.20;1.00;;;;;;5055139;28;20463;-70
2021/07/01 10:35:27;;;;;;;58.57;2.70;;;17.00;1.00;;;;;;5053523;28;20969;-70
2021/07/01 10:38:05;;;;;;;58.67;2.60;;;16.80;1.00;;;;;;5055092;28;20458;-70
2021/07/01 10:40:33;;;;;;;57.87;2.70;;;16.70;1.00;;;;;;5055297;28;20481;-71
2021/07/01 10:43:00;;;;;;;57.97;2.67;;;16.70;1.00;;;;;;5054525;28;20546;-71
2021/07/01 10:45:28;;;;;;;58.30;2.60;;;16.60;1.00;;;;;;5053625;28;20585;-71
2021/07/01 10:48:11;;;;;;;58.27;2.77;;;16.50;1.00;;;;;;5054918;28;20450;-72
2021/07/01 10:50:38;;;;;;;58.13;2.40;;;16.30;1.00;;;;;;5054947;28;20446;-76
2021/07/01 10:53:26;;;;;;;57.67;2.30;;;16.20;1.00;;;;;;5054444;28;20475;-76
2021/07/01 10:55:54;;;;;;;58.17;2.70;;;15.90;1.00;;;;;;5055024;28;20446;-75
2021/07/01 10:58:21;;;;;;;58.27;2.80;;;15.70;1.00;;;;;;5055067;28;20541;-75
2021/07/01 11:00:48;;;;;;;58.57;2.90;;;15.50;1.00;;;;;;5054738;28;20519;-75
2021/07/01 11:03:21;;;;;;;58.27;2.43;;;15.40;1.00;;;;;;5054137;28;20551;-75
2021/07/01 11:05:48;;;;;;;58.23;2.57;;;15.30;1.00;;;;;;5054495;28;20486;-75
2021/07/01 11:08:29;;;;;;;58.20;2.77;;;15.30;1.00;;;;;;5054679;28;20460;-75
2021/07/01 11:10:56;;;;;;;58.13;2.80;;;15.40;1.00;;;;;;5054400;28;20492;-75
2021/07/01 11:13:25;;;;;;;58.50;2.80;;;15.50;1.00;;;;;;5054041;28;20552;-75
2021/07/01 11:16:06;;;;;;;58.17;2.47;;;15.60;1.00;;;;;;5053454;28;20829;-75
2021/07/01 11:18:36;;;;;;;58.60;2.83;;;15.80;1.00;;;;;;5054046;28;20533;-75
2021/07/01 11:21:07;;;;;;;58.50;2.77;;;15.90;1.00;;;;;;5053207;28;20964;-75
2021/07/01 11:23:35;;;;;;;58.30;2.47;;;16.10;1.00;;;;;;5054045;28;20481;-75
2021/07/01 11:26:02;;;;;;;58.17;2.60;;;16.20;1.00;;;;;;5054239;28;20854;-75
2021/07/01 11:28:30;;;;;;;57.93;2.47;;;16.40;1.00;;;;;;5054155;28;20838;-75
2021/07/01 11:31:00;;;;;;;57.97;2.60;;;16.50;1.00;;;;;;5053835;28;20451;-75
2021/07/01 11:33:27;;;;;;;59.00;2.80;;;16.70;1.00;;;;;;5053703;28;20987;-75
2021/07/01 11:36:09;;;;;;;58.17;2.60;;;16.80;1.00;;;;;;5054159;28;20496;-76
2021/07/01 11:38:38;;;;;;;58.27;2.63;;;16.90;1.00;;;;;;5054063;28;20451;-75
2021/07/01 11:41:05;;;;;;;58.07;2.43;;;16.90;1.00;;;;;;5053839;28;20451;-75
2021/07/01 11:43:33;;;;;;;57.87;2.60;;;17.00;1.00;;;;;;5053398;28;20468;-75
2021/07/01 11:46:00;;;;;;;58.20;2.47;;;17.00;1.00;;;;;;5053731;28;20574;-75
2021/07/01 11:48:29;;;;;;;57.93;2.63;;;16.90;1.00;;;;;;5037545;28;20820;-75
2021/07/01 11:50:58;;;;;;;57.87;2.50;;;16.80;1.00;;;;;;5033504;28;20503;-75
2021/07/01 11:53:26;;;;;;;58.00;2.57;;;16.80;1.00;;;;;;5033482;28;20482;-75
2021/07/01 11:55:57;;;;;;;57.70;2.37;;;16.90;1.00;;;;;;5033639;28;20518;-74
2021/07/01 11:58:24;;;;;;;58.80;2.83;;;16.90;1.00;;;;;;5033740;28;20522;-75
2021/07/01 12:00:51;;;;;;;57.97;2.50;;;16.90;1.00;;;;;;5033722;28;20491;-73
2021/07/01 12:03:20;;;;;;;57.93;2.30;;;17.00;1.00;;;;;;5033092;28;21059;-73
2021/07/01 12:05:49;;;;;;;58.17;2.53;;;17.10;1.00;;;;;;5033447;28;20562;-73
2021/07/01 12:08:17;;;;;;;58.10;2.40;;;17.20;1.00;;;;;;5033396;28;20460;-74
2021/07/01 12:10:45;;;;;;;57.83;2.40;;;17.40;1.00;;;;;;5033399;28;20547;-73
2021/07/01 12:13:42;;;;;;;58.03;2.50;;;17.60;1.00;;;;;;5033250;28;20556;-73
2021/07/01 12:16:10;;;;;;;57.87;2.67;;;17.80;1.00;;;;;;5033316;28;20543;-73
2021/07/01 12:18:57;;;;;;;58.00;2.67;;;18.10;1.00;;;;;;5032296;28;20495;-73
2021/07/01 12:21:26;;;;;;;58.13;2.57;;;18.40;1.00;;;;;;5032768;28;20459;-74
2021/07/01 12:23:54;;;;;;;58.10;2.20;;;18.60;1.00;;;;;;5032937;28;20899;-73
2021/07/01 12:26:32;;;;;;;58.17;2.37;;;18.60;1.00;;;;;;5033358;28;20579;-73
2021/07/01 12:29:01;;;;;;;57.70;2.43;;;18.50;1.00;;;;;;5033090;28;20547;-73
2021/07/01 12:31:28;;;;;;;57.93;2.70;;;18.20;1.00;;;;;;5032391;28;20537;-73
2021/07/01 12:33:56;;;;;;;58.00;2.40;;;18.10;1.00;;;;;;5032888;28;20571;-74
2021/07/01 12:36:28;;;;;;;57.87;2.63;;;18.10;1.00;;;;;;5032788;28;20956;-73
2021/07/01 12:39:17;;;;;;;58.13;2.63;;;18.30;1.00;;;;;;5032875;28;21044;-74
2021/07/01 12:41:45;;;;;;;58.10;2.30;;;18.60;1.00;;;;;;5032391;28;20484;-74
2021/07/01 12:44:16;;;;;;;58.10;2.60;;;19.00;1.00;;;;;;5033006;28;20500;-73
2021/07/01 12:47:09;;;;;;;58.27;2.30;;;19.00;1.00;;;;;;5032743;28;21013;-73
2021/07/01 12:49:52;;;;;;;57.93;2.40;;;18.70;1.00;;;;;;5032887;28;20960;-73